createdAt,value
2023-08-16T00:02:43.917Z,25.20
2023-08-16T00:06:32.216Z,25.22
2023-08-16T00:10:16.357Z,25.30
2023-08-16T00:14:05.662Z,25.30
2023-08-16T00:18:08.180Z,25.20
2023-08-16T00:21:56.603Z,25.20
2023-08-16T00:25:45.834Z,25.20
2023-08-16T00:29:24.327Z,25.22
2023-08-16T00:33:11.812Z,25.30
2023-08-16T00:36:55.819Z,25.30
2023-08-16T00:40:47.207Z,25.28
2023-08-16T00:44:40.096Z,25.20
2023-08-16T00:48:28.450Z,25.20
2023-08-16T00:52:15.937Z,25.20
2023-08-16T00:56:21.814Z,25.20
2023-08-16T01:00:07.816Z,25.20
2023-08-16T01:03:56.446Z,25.20
2023-08-16T01:07:49.329Z,25.20
2023-08-16T01:11:43.197Z,25.20
2023-08-16T01:19:29.001Z,25.20
2023-08-16T01:23:44.789Z,25.20
2023-08-16T01:31:58.822Z,25.20
2023-08-16T01:35:51.813Z,25.20
2023-08-16T01:39:42.203Z,25.20
2023-08-16T01:43:28.618Z,25.20
2023-08-16T01:47:16.964Z,25.20
2023-08-16T01:51:05.396Z,25.20
2023-08-16T01:55:02.090Z,25.20
2023-08-16T01:58:51.280Z,25.20
2023-08-16T02:02:37.981Z,25.20
2023-08-16T02:06:24.709Z,25.26
2023-08-16T02:10:13.138Z,25.30
2023-08-16T02:14:01.978Z,25.30
2023-08-16T02:17:57.971Z,25.28
2023-08-16T02:21:29.148Z,25.30
2023-08-16T02:25:17.942Z,25.30
2023-08-16T02:29:01.869Z,25.38
2023-08-16T02:32:53.647Z,25.40
2023-08-16T02:36:43.021Z,25.30
2023-08-16T02:40:31.000Z,25.30
2023-08-16T02:44:19.113Z,25.30
2023-08-16T02:48:00.199Z,25.30
2023-08-16T02:51:48.306Z,25.30
2023-08-16T02:55:36.562Z,25.30
2023-08-16T02:59:24.705Z,25.30
2023-08-16T03:03:12.985Z,25.30
2023-08-16T03:06:58.929Z,25.30
2023-08-16T03:10:48.313Z,25.20
2023-08-16T03:14:35.296Z,25.20
2023-08-16T03:18:17.058Z,25.20
2023-08-16T03:22:01.124Z,25.20
2023-08-16T03:25:49.632Z,25.20
2023-08-16T03:29:48.355Z,25.20
2023-08-16T03:37:41.393Z,25.18
2023-08-16T03:45:36.745Z,25.00
2023-08-16T03:49:42.732Z,24.90
2023-08-16T03:53:31.701Z,24.90
2023-08-16T03:56:59.547Z,24.92
2023-08-16T04:05:11.432Z,25.00
2023-08-16T04:09:04.489Z,24.92
2023-08-16T04:12:52.970Z,24.80
2023-08-16T04:16:29.548Z,24.58
2023-08-16T04:20:20.040Z,24.40
2023-08-16T04:28:13.632Z,24.14
2023-08-16T04:31:53.996Z,24.10
2023-08-16T04:35:56.759Z,24.10
2023-08-16T04:39:45.016Z,24.10
2023-08-16T04:47:45.841Z,24.20
2023-08-16T04:51:56.073Z,24.20
2023-08-16T04:55:47.577Z,24.30
2023-08-16T04:59:35.720Z,24.32
2023-08-16T05:03:25.000Z,24.40
2023-08-16T05:07:13.487Z,24.40
2023-08-16T05:11:02.476Z,24.40
2023-08-16T05:14:52.565Z,24.48
2023-08-16T05:22:15.344Z,24.50
2023-08-16T05:26:24.261Z,24.56
2023-08-16T05:30:13.508Z,24.60
2023-08-16T05:34:07.770Z,24.60
2023-08-16T05:37:52.452Z,24.60
2023-08-16T05:41:41.716Z,24.60
2023-08-16T05:45:24.099Z,24.62
2023-08-16T05:53:18.352Z,24.70
2023-08-16T05:57:04.170Z,24.70
2023-08-16T06:00:59.225Z,24.80
2023-08-16T06:04:58.326Z,24.80
2023-08-16T06:08:49.864Z,24.88
2023-08-16T06:12:37.252Z,24.90
2023-08-16T06:16:27.135Z,24.90
2023-08-16T06:24:23.401Z,25.10
2023-08-16T06:32:21.931Z,25.60
2023-08-16T06:36:00.617Z,25.80
2023-08-16T06:40:10.477Z,25.94
2023-08-16T06:44:04.759Z,26.10
2023-08-16T06:48:07.920Z,26.30
2023-08-16T06:51:56.617Z,26.40
2023-08-16T07:11:30.044Z,26.90
2023-08-16T07:15:25.768Z,26.90
2023-08-16T07:19:30.430Z,26.82
2023-08-16T07:27:41.238Z,26.80
2023-08-16T07:31:33.156Z,26.80
2023-08-16T07:35:43.571Z,26.80
2023-08-16T07:47:47.898Z,27.08
2023-08-16T07:56:13.171Z,27.20
2023-08-16T08:00:33.640Z,27.30
2023-08-16T08:19:06.955Z,27.70
2023-08-16T08:22:35.995Z,27.68
2023-08-16T08:27:26.659Z,27.60
2023-08-16T08:31:19.381Z,27.60
2023-08-16T08:39:39.278Z,27.40
2023-08-16T08:47:35.213Z,27.30
2023-08-16T09:04:32.927Z,27.20
2023-08-16T09:17:33.209Z,27.20
2023-08-16T09:21:49.562Z,27.24
2023-08-16T09:42:27.227Z,27.50
2023-08-16T09:47:03.492Z,27.70
2023-08-16T09:54:52.991Z,28.00
2023-08-16T10:08:11.235Z,28.40
2023-08-16T10:12:04.949Z,28.60
2023-08-16T10:15:54.996Z,28.60
2023-08-16T10:19:54.219Z,28.70
2023-08-16T10:32:44.823Z,28.90
2023-08-16T10:41:28.696Z,29.30
2023-08-16T10:50:02.842Z,29.76
2023-08-16T10:54:00.014Z,29.90
2023-08-16T10:57:52.733Z,30.08
2023-08-16T11:02:11.005Z,30.20
2023-08-16T11:10:49.187Z,30.50
2023-08-16T11:14:38.772Z,30.60
2023-08-16T11:22:19.964Z,30.70
2023-08-16T11:34:30.518Z,30.90
2023-08-16T11:47:02.697Z,31.12
2023-08-16T11:50:45.674Z,31.20
2023-08-16T11:58:18.301Z,31.20
2023-08-16T12:02:07.674Z,31.20
2023-08-16T12:09:28.544Z,31.20
2023-08-16T12:13:23.171Z,31.30
2023-08-16T12:17:14.543Z,31.30
2023-08-16T12:21:14.122Z,31.30
2023-08-16T12:28:34.150Z,31.40
2023-08-16T12:32:23.931Z,31.34
2023-08-16T12:36:29.539Z,31.20
2023-08-16T12:44:26.598Z,30.96
2023-08-16T12:48:34.915Z,30.90
2023-08-16T12:52:28.800Z,30.80
2023-08-16T12:56:11.724Z,30.70
2023-08-16T13:03:35.217Z,30.70
2023-08-16T13:07:27.006Z,30.70
2023-08-16T13:11:33.156Z,30.60
2023-08-16T13:20:02.827Z,30.70
2023-08-16T13:28:19.350Z,31.00
2023-08-16T13:32:01.514Z,31.00
2023-08-16T13:35:51.204Z,31.00
2023-08-16T13:39:43.074Z,31.00
2023-08-16T13:47:43.814Z,31.00
2023-08-16T13:51:10.947Z,30.90
2023-08-16T13:55:18.664Z,30.90
2023-08-16T14:03:52.274Z,30.90
2023-08-16T14:07:48.463Z,31.00
2023-08-16T14:47:03.434Z,30.70
2023-08-16T14:51:13.668Z,30.70
2023-08-16T15:12:06.675Z,30.50
2023-08-16T15:24:46.247Z,30.40
2023-08-16T15:32:47.192Z,30.40
2023-08-16T15:49:11.186Z,30.30
2023-08-16T16:01:07.216Z,30.20
2023-08-16T16:04:35.978Z,30.20
2023-08-16T16:08:40.706Z,30.20
2023-08-16T16:17:33.981Z,30.10
2023-08-16T16:21:02.312Z,30.10
2023-08-16T16:25:07.477Z,30.10
2023-08-16T16:29:00.735Z,30.08
2023-08-16T16:33:32.430Z,30.00
2023-08-16T16:37:21.193Z,30.00
2023-08-16T16:57:38.404Z,29.80
2023-08-16T17:05:35.270Z,29.70
2023-08-16T17:13:42.555Z,29.60
2023-08-16T17:17:29.304Z,29.60
2023-08-16T17:21:17.777Z,29.60
2023-08-16T17:25:04.171Z,29.50
2023-08-16T17:32:53.857Z,29.40
2023-08-16T17:41:20.470Z,29.30
2023-08-16T17:45:21.846Z,29.24
2023-08-16T17:49:58.677Z,29.20
2023-08-16T17:54:03.391Z,29.20
2023-08-16T17:58:08.151Z,29.10
2023-08-16T18:02:12.423Z,29.08
2023-08-16T18:10:21.731Z,28.94
2023-08-16T18:14:11.613Z,28.90
2023-08-16T18:18:06.173Z,28.90
2023-08-16T18:30:28.240Z,28.80
2023-08-16T18:34:09.441Z,28.80
2023-08-16T18:37:53.689Z,28.80
2023-08-16T18:41:48.185Z,28.72
2023-08-16T18:45:29.871Z,28.70
2023-08-16T18:49:27.705Z,28.70
2023-08-16T18:53:21.026Z,28.60
2023-08-16T18:56:59.884Z,28.60
2023-08-16T19:00:54.709Z,28.60
2023-08-16T19:04:43.078Z,28.50
2023-08-16T19:08:20.744Z,28.50
2023-08-16T19:12:05.196Z,28.40
2023-08-16T19:15:54.041Z,28.40
2023-08-16T19:19:45.747Z,28.30
2023-08-16T19:23:34.668Z,28.30
2023-08-16T19:27:16.411Z,28.22
2023-08-16T19:31:05.696Z,28.20
2023-08-16T19:34:55.150Z,28.18
2023-08-16T19:38:42.336Z,28.10
2023-08-16T19:42:31.261Z,28.10
2023-08-16T19:46:32.755Z,28.00
2023-08-16T19:50:02.330Z,28.00
2023-08-16T19:53:45.765Z,28.00
2023-08-16T19:57:38.583Z,27.90
2023-08-16T20:01:43.827Z,27.90
2023-08-16T20:05:34.302Z,27.80
2023-08-16T20:09:25.143Z,27.70
2023-08-16T20:13:13.695Z,27.70
2023-08-16T20:17:02.375Z,27.60
2023-08-16T20:20:38.782Z,27.50
2023-08-16T20:24:26.834Z,27.50
2023-08-16T20:28:07.997Z,27.40
2023-08-16T20:31:57.332Z,27.36
2023-08-16T20:35:52.045Z,27.30
2023-08-16T20:39:40.403Z,27.30
2023-08-16T20:43:33.500Z,27.30
2023-08-16T20:51:02.423Z,27.20
2023-08-16T20:54:35.608Z,27.14
2023-08-16T20:58:24.866Z,27.10
2023-08-16T21:02:12.431Z,27.00
2023-08-16T21:05:57.907Z,26.90
2023-08-16T21:09:49.176Z,26.90
2023-08-16T21:13:36.702Z,26.90
2023-08-16T21:17:16.416Z,26.90
2023-08-16T21:21:04.557Z,26.90
2023-08-16T21:24:39.674Z,26.90
2023-08-16T21:28:28.944Z,26.90
2023-08-16T21:32:16.905Z,26.80
2023-08-16T21:36:03.626Z,26.80
2023-08-16T21:39:50.487Z,26.70
2023-08-16T21:43:40.161Z,26.60
2023-08-16T21:47:29.663Z,26.60
2023-08-16T21:50:51.318Z,26.50
2023-08-16T21:54:40.099Z,26.50
2023-08-16T21:58:26.562Z,26.48
2023-08-16T22:02:15.191Z,26.40
2023-08-16T22:05:56.704Z,26.40
2023-08-16T22:09:46.932Z,26.30
2023-08-16T22:13:35.300Z,26.30
2023-08-16T22:17:23.048Z,26.30
2023-08-16T22:21:12.442Z,26.30
2023-08-16T22:29:08.139Z,26.22
2023-08-16T22:32:55.092Z,26.30
2023-08-16T22:36:44.600Z,26.30
2023-08-16T22:40:35.646Z,26.30
2023-08-16T22:44:23.973Z,26.30
2023-08-16T22:48:14.081Z,26.30
2023-08-16T22:51:53.755Z,26.28
2023-08-16T22:55:41.996Z,26.20
2023-08-16T22:59:30.777Z,26.20
2023-08-16T23:03:18.983Z,26.20
2023-08-16T23:07:08.058Z,26.14
2023-08-16T23:10:56.261Z,26.10
2023-08-16T23:14:44.890Z,26.10
2023-08-16T23:21:34.293Z,26.10
2023-08-16T23:25:28.537Z,26.00
2023-08-16T23:29:17.086Z,26.00
2023-08-16T23:33:07.268Z,26.00
2023-08-16T23:40:19.855Z,25.96
2023-08-16T23:44:07.995Z,25.90
2023-08-16T23:47:57.036Z,25.90
2023-08-16T23:51:30.514Z,25.80
2023-08-16T23:55:19.367Z,25.80
2023-08-16T23:59:08.339Z,25.80
